Data for 01/13/2017

Time Sea-Level Adjusted Pressure Absolute Pressure Temperature Relative Humidity Dew Point   
(mb) (inHg) (mb) (inHg) (C) (F) (%) (C) (F)
00:05 1021 30.15 851 25.13 -11.8 10.7 77 -15.1 4.7
00:10 1021 30.15 851 25.13 -11.5 11.3 75 -15.2 4.7
00:15 1022 30.18 851 25.13 -11.6 11.1 75 -15.2 4.7
00:20 1022 30.18 851 25.13 -11.9 10.7 76 -15.3 4.5
00:25 1022 30.18 851 25.13 -12.2 10 78 -15.3 4.4
00:30 1022 30.18 851 25.13 -12.3 9.9 78 -15.3 4.4
00:35 1022 30.18 851 25.13 -12.5 9.5 78 -15.6 4
00:40 1022 30.18 851 25.13 -12.7 9.1 81 -15.4 4.2
00:45 1022 30.18 851 25.13 -12.8 8.9 79 -15.8 3.5
00:50 1022 30.18 851 25.13 -13.6 7.5 80 -16.3 2.6
00:55 1022 30.18 851 25.13 -14 6.7 82 -16.5 2.3
01:00 1022 30.18 851 25.13 -14.1 6.6 82 -16.6 2.1
01:05 1022 30.18 851 25.13 -14 6.8 83 -16.3 2.7
01:10 1022 30.18 851 25.13 -13.6 7.5 83 -15.8 3.5
01:15 1022 30.18 851 25.13 -13.3 8 79 -16.2 2.9
01:20 1022 30.18 851 25.13 -13.5 7.6 80 -16.3 2.7
01:25 1022 30.18 852 25.16 -13.5 7.6 83 -15.9 3.5
01:30 1022 30.18 852 25.16 -13 8.6 80 -15.7 3.7
01:35 1022 30.18 851 25.13 -12.8 9 80 -15.5 4.1
01:40 1022 30.18 852 25.16 -12.8 8.9 79 -15.7 3.8
01:45 1022 30.18 852 25.16 -13.2 8.3 81 -15.8 3.6
01:50 1022 30.18 852 25.16 -13 8.6 79 -16 3.3
01:55 1022 30.18 852 25.16 -13.4 7.9 80 -16.2 2.8
02:00 1023 30.21 852 25.16 -13.7 7.4 82 -16.2 2.9
02:05 1023 30.21 852 25.16 -13.6 7.6 81 -16.1 3
02:10 1023 30.21 852 25.16 -13.5 7.8 80 -16.2 2.9
02:15 1023 30.21 852 25.16 -13.5 7.7 81 -16.1 2.9
02:20 1023 30.21 852 25.16 -13.4 7.8 82 -15.9 3.3
02:25 1023 30.21 852 25.16 -13.3 8 80 -16.1 3.1
02:30 1023 30.21 852 25.16 -13.6 7.5 80 -16.3 2.7
02:35 1023 30.21 852 25.16 -13.7 7.3 80 -16.4 2.5
02:40 1023 30.21 852 25.16 -13.6 7.6 81 -16.2 2.8
02:45 1023 30.21 852 25.16 -13.4 7.8 79 -16.3 2.7
02:50 1023 30.21 852 25.16 -13.5 7.8 80 -16.3 2.7
02:55 1023 30.21 852 25.16 -13.5 7.7 81 -16.2 2.9
03:00 1023 30.21 852 25.16 -13.4 7.9 79 -16.3 2.7
03:05 1023 30.21 853 25.19 -13.4 7.9 82 -15.9 3.4
03:10 1023 30.21 853 25.19 -13.1 8.3 81 -15.7 3.7
03:15 1023 30.21 853 25.19 -13 8.6 79 -15.9 3.5
03:20 1023 30.21 853 25.19 -13 8.6 80 -15.8 3.6
03:25 1023 30.21 853 25.19 -13 8.7 79 -16 3.3
03:30 1023 30.21 853 25.19 -13.3 8.1 80 -16.1 3
03:35 1023 30.21 853 25.19 -13.3 8 81 -15.9 3.3
03:40 1023 30.21 853 25.19 -13 8.7 80 -15.7 3.8
03:45 1023 30.21 853 25.19 -12.6 9.4 78 -15.6 3.9
03:50 1024 30.24 853 25.19 -12.5 9.5 80 -15.3 4.4
03:55 1024 30.24 853 25.19 -12.2 10.1 78 -15.2 4.6
04:00 1024 30.24 853 25.19 -12.9 8.7 78 -15.9 3.3
04:05 1024 30.24 853 25.19 -13.3 8 80 -16.1 3.1
04:10 1024 30.24 853 25.19 -13.3 8 80 -16.1 3
04:15 1024 30.24 853 25.19 -13.4 7.9 79 -16.2 2.8
04:20 1024 30.24 853 25.19 -13.6 7.5 81 -16.3 2.7
04:25 1024 30.24 853 25.19 -13.6 7.6 81 -16.2 2.9
04:30 1024 30.24 853 25.19 -13.1 8.3 80 -15.9 3.4
04:35 1024 30.24 853 25.19 -12.8 9 79 -15.7 3.7
04:40 1024 30.24 853 25.19 -12.6 9.3 79 -15.6 4
04:45 1024 30.24 853 25.19 -12.6 9.4 78 -15.6 3.9
04:50 1024 30.24 853 25.19 -12.4 9.6 80 -15.3 4.5
04:55 1024 30.24 853 25.19 -12.1 10.3 78 -15.1 4.8
05:00 1024 30.24 853 25.19 -12.1 10.3 78 -15.1 4.8
05:05 1024 30.24 853 25.19 -12.5 9.5 78 -15.6 4
05:10 1024 30.24 853 25.19 -12.7 9.1 79 -15.7 3.8
05:15 1024 30.24 853 25.19 -13.1 8.5 77 -16.3 2.7
05:20 1024 30.24 853 25.19 -13.8 7.2 81 -16.4 2.4
05:25 1024 30.24 853 25.19 -13.9 6.9 82 -16.3 2.6
05:30 1024 30.24 853 25.19 -13.6 7.4 79 -16.5 2.3
05:35 1024 30.24 853 25.19 -13.9 6.9 80 -16.7 1.9
05:40 1024 30.24 853 25.19 -14.1 6.7 80 -16.8 1.8
05:45 1024 30.24 853 25.19 -14.2 6.5 79 -17 1.3
05:50 1024 30.24 853 25.19 -14.6 5.8 81 -17.1 1.2
05:55 1024 30.24 853 25.19 -14.6 5.6 82 -17.1 1.2
06:00 1024 30.24 853 25.19 -14.3 6.2 81 -16.8 1.7
06:05 1024 30.24 853 25.19 -14.2 6.5 82 -16.7 2
06:10 1024 30.24 853 25.19 -14.1 6.7 81 -16.7 1.9
06:15 1024 30.24 853 25.19 -14 6.7 80 -16.7 1.9
06:20 1024 30.24 853 25.19 -14 6.8 81 -16.6 2.1
06:25 1024 30.24 853 25.19 -13.9 6.9 82 -16.5 2.4
06:30 1024 30.24 853 25.19 -13.8 7.1 82 -16.2 2.9
06:35 1024 30.24 853 25.19 -13.7 7.4 81 -16.2 2.8
06:40 1024 30.24 853 25.19 -13.8 7.1 83 -16.1 3
06:45 1024 30.24 853 25.19 -13.8 7.2 83 -16.2 2.9
06:50 1024 30.24 853 25.19 -13.9 7.1 82 -16.3 2.6
06:55 1024 30.24 854 25.22 -13.7 7.3 80 -16.5 2.3
07:00 1024 30.24 854 25.22 -13.9 7 81 -16.5 2.2
07:05 1024 30.24 854 25.22 -13.9 7 81 -16.6 2.2
07:10 1025 30.27 854 25.22 -14 6.9 80 -16.8 1.8
07:15 1024 30.24 854 25.22 -14.2 6.5 79 -17 1.4
07:20 1024 30.24 854 25.22 -14.4 6 80 -17.2 1.1
07:25 1024 30.24 854 25.22 -14.6 5.8 81 -17.1 1.2
07:30 1025 30.27 854 25.22 -14.7 5.6 81 -17.3 0.8
07:35 1025 30.27 854 25.22 -14.8 5.3 81 -17.4 0.8
07:40 1025 30.27 854 25.22 -14.5 5.9 81 -17.1 1.3
07:45 1025 30.27 854 25.22 -14.3 6.2 81 -16.9 1.5
07:50 1025 30.27 854 25.22 -14.3 6.3 80 -17 1.4
07:55 1025 30.27 854 25.22 -14.3 6.3 80 -17.1 1.3
08:00 1025 30.27 854 25.22 -14.2 6.5 80 -16.9 1.6
08:05 1025 30.27 854 25.22 -14.1 6.7 80 -16.8 1.8
08:10 1025 30.27 854 25.22 -14 6.9 80 -16.7 1.9
08:15 1025 30.27 854 25.22 -13.8 7.2 80 -16.5 2.2
08:20 1025 30.27 854 25.22 -13.6 7.5 80 -16.4 2.5
08:25 1025 30.27 854 25.22 -13.4 7.9 78 -16.4 2.5
08:30 1025 30.27 854 25.22 -13.1 8.4 77 -16.3 2.6
08:35 1025 30.27 854 25.22 -13 8.6 77 -16.1 2.9
08:40 1025 30.27 854 25.22 -12.6 9.3 76 -16 3.3
08:45 1025 30.27 854 25.22 -12.2 10 75 -15.8 3.6
08:50 1025 30.27 855 25.25 -12 10.4 73 -15.9 3.5
08:55 1025 30.27 855 25.25 -11.9 10.6 73 -15.8 3.6
09:00 1025 30.27 855 25.25 -11.8 10.8 73 -15.7 3.7
09:05 1025 30.27 855 25.25 -12 10.5 73 -15.9 3.3
09:10 1026 30.3 855 25.25 -11.4 11.5 69 -16 3.2
09:15 1026 30.3 855 25.25 -11.3 11.6 71 -15.6 3.9
09:20 1026 30.3 855 25.25 -11.2 11.9 70 -15.6 3.9
09:25 1026 30.3 855 25.25 -10.8 12.6 68 -15.6 4
09:30 1026 30.3 855 25.25 -10.8 12.7 68 -15.6 4
09:35 1026 30.3 855 25.25 -11.2 11.9 70 -15.7 3.8
09:40 1026 30.3 855 25.25 -11.4 11.6 71 -15.7 3.7
09:45 1026 30.3 855 25.25 -11.5 11.4 71 -15.7 3.8
09:50 1026 30.3 855 25.25 -10.8 12.7 68 -15.5 4
09:55 1026 30.3 855 25.25 -10.3 13.5 66 -15.4 4.3
10:00 1026 30.3 855 25.25 -10.2 13.6 67 -15.2 4.7
10:05 1026 30.3 855 25.25 -10.5 13.2 70 -15 5.1
10:10 1026 30.3 855 25.25 -10.2 13.7 68 -14.9 5.1
10:15 1026 30.3 855 25.25 -9.9 14.3 67 -15 5.1
10:20 1026 30.3 855 25.25 -9.5 15 65 -14.8 5.4
10:25 1026 30.3 855 25.25 -8.7 16.4 63 -14.4 6
10:30 1026 30.3 855 25.25 -8 17.7 61 -14.2 6.4
10:35 1026 30.3 856 25.28 -7.6 18.3 60 -14.1 6.6
10:40 1026 30.3 856 25.28 -7.5 18.5 60 -14 6.8
10:45 1026 30.3 856 25.28 -7.4 18.7 60 -14 6.9
10:50 1026 30.3 856 25.28 -7.1 19.2 59 -13.7 7.3
10:55 1026 30.3 856 25.28 -7 19.5 58 -13.9 7.1
11:00 1026 30.3 856 25.28 -7.8 17.9 62 -13.9 7.1
11:05 1026 30.3 855 25.25 -7.8 18 62 -13.9 7
11:10 1026 30.3 855 25.25 -7.6 18.3 61 -13.9 7
11:15 1026 30.3 855 25.25 -7 19.5 58 -13.9 7.1
11:20 1026 30.3 855 25.25 -6.4 20.5 56 -13.8 7.2
11:25 1026 30.3 855 25.25 -6.4 20.5 57 -13.5 7.8
11:30 1026 30.3 855 25.25 -6.9 19.6 59 -13.7 7.3
11:35 1026 30.3 855 25.25 -7.2 19.1 59 -13.8 7.2
11:40 1026 30.3 855 25.25 -6.6 20.1 56 -14 6.8
11:45 1026 30.3 855 25.25 -5.6 22 52 -13.9 7.1
11:50 1026 30.3 855 25.25 -5.5 22.2 53 -13.6 7.5
11:55 1026 30.3 856 25.28 -5.5 22 51 -14.1 6.7
12:00 1026 30.3 856 25.28 -5.1 22.8 51 -13.8 7.1
12:05 1026 30.3 856 25.28 -5.3 22.5 51 -13.9 7
12:10 1026 30.3 856 25.28 -5.8 21.6 54 -13.7 7.3
12:15 1026 30.3 856 25.28 -6.3 20.7 56 -13.8 7.2
12:20 1026 30.3 856 25.28 -6.5 20.2 55 -14.1 6.7
12:25 1026 30.3 856 25.28 -6.8 19.7 57 -14 6.8
12:30 1026 30.3 856 25.28 -6.5 20.3 56 -13.9 7
12:35 1026 30.3 856 25.28 -6.3 20.7 55 -13.8 7.1
12:40 1026 30.3 855 25.25 -6.6 20.1 57 -13.8 7.2
12:45 1026 30.3 855 25.25 -6.8 19.8 57 -13.9 7
12:50 1026 30.3 855 25.25 -6 21.2 53 -14 6.7
12:55 1026 30.3 855 25.25 -5.5 22.2 52 -13.9 7
13:00 1026 30.3 855 25.25 -5.5 22.1 53 -13.6 7.4
13:05 1026 30.3 855 25.25 -5.3 22.4 52 -13.7 7.3
13:10 1026 30.3 855 25.25 -4.9 23.2 50 -13.7 7.3
13:15 1026 30.3 855 25.25 -5.5 22.1 54 -13.4 7.8
13:20 1026 30.3 855 25.25 -5.6 21.9 54 -13.5 7.8
13:25 1026 30.3 855 25.25 -5.7 21.8 54 -13.6 7.5
13:30 1026 30.3 855 25.25 -5.7 21.7 54 -13.7 7.3
13:35 1026 30.3 855 25.25 -6 21.2 54 -13.8 7.1
13:40 1026 30.3 855 25.25 -5.7 21.8 54 -13.6 7.5
13:45 1026 30.3 855 25.25 -6.1 21 56 -13.6 7.5
13:50 1026 30.3 855 25.25 -6.7 19.9 56 -14 6.7
13:55 1026 30.3 855 25.25 -6.8 19.7 57 -13.9 6.9
14:00 1026 30.3 855 25.25 -6.3 20.6 54 -14.1 6.7
14:05 1026 30.3 855 25.25 -5.8 21.5 53 -13.9 7
14:10 1026 30.3 855 25.25 -5.9 21.4 53 -13.9 6.9
14:15 1026 30.3 855 25.25 -5.5 22.1 52 -14 6.8
14:20 1026 30.3 855 25.25 -5 23 50 -14 6.8
14:25 1026 30.3 855 25.25 -4.4 24.1 47 -14 6.7
14:30 1026 30.3 855 25.25 -4.3 24.2 48 -13.7 7.3
14:35 1026 30.3 855 25.25 -4.6 23.7 50 -13.5 7.7
14:40 1026 30.3 855 25.25 -4.2 24.4 49 -13.5 7.6
14:45 1026 30.3 855 25.25 -4.1 24.6 48 -13.7 7.4
14:50 1026 30.3 855 25.25 -4.2 24.4 48 -13.6 7.5
14:55 1026 30.3 855 25.25 -4.2 24.5 48 -13.5 7.7
15:00 1026 30.3 855 25.25 -4.1 24.5 49 -13.3 8.1
15:05 1026 30.3 855 25.25 -4.5 23.8 49 -13.6 7.5
15:10 1026 30.3 855 25.25 -4.5 23.9 50 -13.4 7.9
15:15 1026 30.3 855 25.25 -4.7 23.6 49 -13.7 7.3
15:20 1026 30.3 855 25.25 -4.6 23.8 50 -13.4 7.8
15:25 1026 30.3 855 25.25 -4.5 23.9 50 -13.5 7.8
15:30 1026 30.3 855 25.25 -4.4 24.2 49 -13.5 7.6
15:35 1026 30.3 855 25.25 -4.5 23.9 50 -13.5 7.7
15:40 1026 30.3 855 25.25 -4.4 24.1 49 -13.5 7.7
15:45 1026 30.3 855 25.25 -5.1 22.8 53 -13.3 8
15:50 1026 30.3 855 25.25 -5.7 21.7 53 -13.8 7.1
15:55 1026 30.3 855 25.25 -5.8 21.5 53 -13.9 7
16:00 1026 30.3 855 25.25 -5.4 22.2 52 -13.9 7
16:05 1026 30.3 855 25.25 -5.1 22.8 52 -13.6 7.5
16:10 1026 30.3 856 25.28 -5.4 22.2 54 -13.5 7.8
16:15 1026 30.3 856 25.28 -6.1 21 55 -13.8 7.2
16:20 1026 30.3 856 25.28 -6.2 20.8 56 -13.8 7.2
16:25 1027 30.33 856 25.28 -6.3 20.7 55 -13.9 6.9
16:30 1027 30.33 856 25.28 -6.4 20.4 55 -14.1 6.7
16:35 1027 30.33 856 25.28 -6.6 20.1 56 -13.9 7
16:40 1027 30.33 856 25.28 -6.8 19.8 57 -14 6.8
16:45 1027 30.33 856 25.28 -6.9 19.5 57 -14 6.7
16:50 1027 30.33 856 25.28 -7.1 19.3 58 -14 6.8
16:55 1027 30.33 856 25.28 -7.4 18.7 59 -14.1 6.7
17:00 1027 30.33 856 25.28 -8 17.6 63 -13.9 7
17:05 1027 30.33 856 25.28 -8.6 16.5 64 -14.2 6.5
17:10 1027 30.33 856 25.28 -9.2 15.5 67 -14.3 6.3
17:15 1027 30.33 856 25.28 -9.7 14.5 69 -14.3 6.2
17:20 1027 30.33 856 25.28 -10.1 13.9 70 -14.6 5.8
17:25 1027 30.33 856 25.28 -10.4 13.3 72 -14.5 5.9
17:30 1027 30.33 856 25.28 -10.5 13 72 -14.7 5.6
17:35 1027 30.33 856 25.28 -10.6 12.9 73 -14.5 5.9
17:40 1027 30.33 856 25.28 -10.7 12.8 73 -14.6 5.7
17:45 1027 30.33 856 25.28 -10.7 12.7 73 -14.7 5.6
17:50 1027 30.33 856 25.28 -11.1 12.1 75 -14.7 5.5
17:55 1027 30.33 856 25.28 -11.3 11.7 75 -14.9 5.2
18:00 1027 30.33 856 25.28 -11.4 11.5 76 -14.8 5.4
18:05 1027 30.33 856 25.28 -11.6 11.2 77 -14.9 5.2
18:10 1027 30.33 856 25.28 -11.5 11.2 76 -15 5.1
18:15 1027 30.33 856 25.28 -11.4 11.4 75 -15 5
18:20 1027 30.33 856 25.28 -11.9 10.7 76 -15.2 4.6
18:25 1027 30.33 857 25.31 -12.4 9.6 77 -15.7 3.8
18:30 1027 30.33 857 25.31 -12.6 9.3 79 -15.5 4.1
18:35 1027 30.33 857 25.31 -12 10.5 78 -15.1 4.8
18:40 1027 30.33 857 25.31 -11.6 11.1 75 -15.1 4.8
18:45 1027 30.33 856 25.28 -11.6 11.2 75 -15.1 4.8
18:50 1027 30.33 856 25.28 -11.5 11.2 75 -15.1 4.9
18:55 1027 30.33 856 25.28 -11.8 10.8 75 -15.3 4.4
19:00 1027 30.33 857 25.31 -11.8 10.7 75 -15.4 4.2
19:05 1027 30.33 857 25.31 -11.9 10.5 76 -15.3 4.4
19:10 1027 30.33 857 25.31 -12.2 10 77 -15.5 4
19:15 1027 30.33 857 25.31 -12.6 9.4 79 -15.5 4
19:20 1027 30.33 857 25.31 -12.5 9.5 79 -15.4 4.2
19:25 1027 30.33 857 25.31 -12.5 9.6 80 -15.3 4.5
19:30 1027 30.33 857 25.31 -12.4 9.6 78 -15.5 4.2
19:35 1027 30.33 857 25.31 -12.6 9.4 80 -15.3 4.4
19:40 1027 30.33 857 25.31 -12.3 9.9 79 -15.2 4.7
19:45 1027 30.33 857 25.31 -12.1 10.3 78 -15.2 4.7
19:50 1027 30.33 857 25.31 -11.8 10.8 78 -14.9 5.2
19:55 1027 30.33 857 25.31 -11.1 12 77 -14.4 6
20:00 1027 30.33 857 25.31 -10.5 13.1 73 -14.4 6.1
20:05 1027 30.33 857 25.31 -10.6 13 72 -14.7 5.6
20:10 1027 30.33 857 25.31 -11.5 11.3 75 -15.1 4.9
20:15 1028 30.36 857 25.31 -11.8 10.7 77 -15 4.9
20:20 1028 30.36 857 25.31 -11.7 11 77 -14.9 5.1
20:25 1028 30.36 857 25.31 -11.8 10.7 77 -15.1 4.8
20:30 1027 30.33 857 25.31 -12.4 9.7 77 -15.6 3.9
20:35 1027 30.33 857 25.31 -12.7 9.1 80 -15.5 4.1
20:40 1027 30.33 857 25.31 -12.4 9.7 79 -15.4 4.3
20:45 1027 30.33 857 25.31 -12 10.3 78 -15.1 4.8
20:50 1028 30.36 857 25.31 -12.1 10.3 78 -15.2 4.7
20:55 1028 30.36 857 25.31 -12.3 9.9 78 -15.3 4.4
21:00 1028 30.36 857 25.31 -12.5 9.4 79 -15.5 4.2
21:05 1028 30.36 857 25.31 -12.6 9.4 79 -15.5 4.1
21:10 1028 30.36 857 25.31 -12.2 10 79 -15.1 4.8
21:15 1028 30.36 857 25.31 -11.7 11 78 -14.8 5.4
21:20 1028 30.36 857 25.31 -11.1 12.1 76 -14.6 5.8
21:25 1028 30.36 857 25.31 -11 12.2 74 -14.8 5.3
21:30 1028 30.36 857 25.31 -11.3 11.6 74 -15.1 4.9
21:35 1028 30.36 857 25.31 -11.6 11.2 77 -14.8 5.4
21:40 1028 30.36 857 25.31 -11.4 11.6 77 -14.6 5.6
21:45 1028 30.36 857 25.31 -11.2 11.9 77 -14.4 6.1
21:50 1028 30.36 857 25.31 -11.5 11.4 76 -14.9 5.1
21:55 1028 30.36 857 25.31 -12.2 10.1 77 -15.4 4.2
22:00 1028 30.36 857 25.31 -12.5 9.4 78 -15.7 3.8
22:05 1028 30.36 857 25.31 -12.7 9.1 79 -15.7 3.7
22:10 1028 30.36 857 25.31 -12.7 9.2 79 -15.6 4
22:15 1028 30.36 857 25.31 -12.6 9.4 78 -15.6 3.9
22:20 1028 30.36 857 25.31 -12.5 9.6 77 -15.8 3.6
22:25 1028 30.36 857 25.31 -12.5 9.6 76 -15.8 3.5
22:30 1028 30.36 857 25.31 -12.7 9.1 76 -16.1 3
22:35 1028 30.36 857 25.31 -12.9 8.8 78 -15.9 3.3
22:40 1028 30.36 857 25.31 -12.8 8.9 78 -15.8 3.5
22:45 1028 30.36 857 25.31 -12.8 8.9 78 -15.9 3.4
22:50 1028 30.36 857 25.31 -13.2 8.3 80 -15.9 3.4
22:55 1028 30.36 857 25.31 -12.9 8.8 81 -15.6 4
23:00 1028 30.36 857 25.31 -12.4 9.8 77 -15.6 4
23:05 1028 30.36 857 25.31 -12.3 9.9 77 -15.5 4.1
23:10 1028 30.36 857 25.31 -12.3 9.9 76 -15.6 3.9
23:15 1028 30.36 857 25.31 -12.4 9.6 74 -16.2 2.9
23:20 1028 30.36 857 25.31 -12.8 8.9 78 -16 3.3
23:25 1028 30.36 857 25.31 -12.9 8.7 78 -16 3.1
23:30 1028 30.36 857 25.31 -13 8.5 79 -16 3.1
23:35 1028 30.36 857 25.31 -13.3 8.1 82 -15.8 3.6
23:40 1028 30.36 857 25.31 -13.1 8.4 83 -15.4 4.3
23:45 1028 30.36 857 25.31 -12.7 9.1 82 -15.2 4.7
23:50 1028 30.36 857 25.31 -12.5 9.5 80 -15.3 4.5
23:55 1028 30.36 857 25.31 -12.6 9.3 77 -15.9 3.4
24:00 1028 30.36 857 25.31 -13.3 8.1 80 -16 3.3